createdAt,value
2022-08-24T00:01:58.630Z,5.68
2022-08-24T00:04:26.908Z,5.75
2022-08-24T00:06:56.613Z,5.32
2022-08-24T00:09:24.679Z,5.57
2022-08-24T00:11:54.115Z,6.68
2022-08-24T00:14:22.172Z,7.03
2022-08-24T00:16:50.425Z,12.70
2022-08-24T00:19:18.990Z,9.75
2022-08-24T00:21:47.247Z,7.70
2022-08-24T00:24:15.717Z,6.07
2022-08-24T00:26:43.854Z,8.10
2022-08-24T00:29:15.461Z,6.13
2022-08-24T00:31:43.559Z,9.30
2022-08-24T00:34:13.859Z,7.82
2022-08-24T00:36:43.091Z,9.65
2022-08-24T00:39:12.191Z,6.93
2022-08-24T00:41:42.966Z,5.85
2022-08-24T00:44:11.772Z,6.05
2022-08-24T00:46:47.021Z,6.18
2022-08-24T00:49:23.746Z,7.53
2022-08-24T00:51:57.794Z,8.40
2022-08-24T00:54:30.478Z,6.55
2022-08-24T00:57:03.598Z,10.52
2022-08-24T00:59:37.753Z,6.50
2022-08-24T01:02:15.649Z,11.05
2022-08-24T01:04:49.166Z,7.15
2022-08-24T01:07:17.806Z,7.05
2022-08-24T01:09:46.393Z,7.57
2022-08-24T01:12:14.617Z,7.32
2022-08-24T01:14:42.690Z,8.52
2022-08-24T01:17:33.916Z,6.95
2022-08-24T01:20:07.273Z,9.43
2022-08-24T01:22:47.679Z,8.75
2022-08-24T01:25:17.602Z,10.15
2022-08-24T01:27:46.373Z,7.93
2022-08-24T01:30:17.395Z,7.50
2022-08-24T01:32:54.618Z,7.18
2022-08-24T01:35:23.202Z,10.68
2022-08-24T01:37:52.804Z,8.68
2022-08-24T01:40:23.233Z,6.97
2022-08-24T01:42:53.975Z,7.72
2022-08-24T01:45:23.013Z,9.35
2022-08-24T01:47:51.399Z,6.22
2022-08-24T01:50:19.433Z,7.07
2022-08-24T01:53:04.757Z,11.65
2022-08-24T01:55:35.836Z,10.98
2022-08-24T01:58:04.722Z,7.15
2022-08-24T02:00:33.398Z,8.35
2022-08-24T02:03:02.202Z,9.35
2022-08-24T02:05:31.495Z,10.48
2022-08-24T02:08:00.336Z,8.23
2022-08-24T02:10:29.409Z,8.20
2022-08-24T02:13:00.116Z,9.40
2022-08-24T02:15:31.865Z,8.27
2022-08-24T02:18:01.121Z,13.95
2022-08-24T02:20:30.244Z,8.23
2022-08-24T02:22:58.780Z,8.13
2022-08-24T02:25:30.506Z,8.55
2022-08-24T02:28:01.771Z,7.97
2022-08-24T02:30:30.978Z,9.80
2022-08-24T02:32:59.725Z,8.45
2022-08-24T02:35:29.310Z,7.30
2022-08-24T02:37:58.060Z,8.00
2022-08-24T02:40:28.165Z,7.22
2022-08-24T02:42:57.427Z,7.35
2022-08-24T02:45:27.428Z,9.90
2022-08-24T02:47:55.858Z,11.02
2022-08-24T02:50:25.234Z,11.07
2022-08-24T02:52:54.292Z,9.73
2022-08-24T02:55:23.045Z,12.30
2022-08-24T02:57:53.261Z,10.30
2022-08-24T03:00:23.834Z,6.80
2022-08-24T03:02:53.470Z,12.30
2022-08-24T03:05:23.433Z,8.10
2022-08-24T03:07:52.393Z,8.63
2022-08-24T03:10:21.583Z,8.38
2022-08-24T03:12:49.736Z,7.32
2022-08-24T03:15:22.557Z,11.52
2022-08-24T03:17:50.845Z,14.98
2022-08-24T03:20:22.968Z,9.63
2022-08-24T03:22:51.813Z,8.68
2022-08-24T03:25:21.636Z,10.10
2022-08-24T03:27:50.302Z,7.30
2022-08-24T03:30:19.168Z,7.50
2022-08-24T03:32:49.537Z,11.43
2022-08-24T03:35:21.866Z,10.15
2022-08-24T03:37:50.889Z,11.25
2022-08-24T03:40:22.328Z,9.57
2022-08-24T03:42:53.722Z,12.85
2022-08-24T03:45:22.869Z,9.07
2022-08-24T03:47:51.173Z,10.02
2022-08-24T03:50:21.413Z,8.43
2022-08-24T03:52:50.408Z,10.93
2022-08-24T03:55:19.527Z,9.18
2022-08-24T03:57:48.501Z,8.15
2022-08-24T04:00:18.083Z,8.88
2022-08-24T04:02:55.165Z,12.77
2022-08-24T04:05:27.071Z,9.48
2022-08-24T04:07:55.173Z,9.85
2022-08-24T04:10:23.233Z,11.13
2022-08-24T04:12:51.290Z,10.93
2022-08-24T04:15:24.478Z,8.45
2022-08-24T04:17:52.734Z,10.50
2022-08-24T04:20:21.294Z,9.60
2022-08-24T04:22:53.712Z,8.02
2022-08-24T04:25:25.130Z,11.13
2022-08-24T04:27:53.534Z,12.98
2022-08-24T04:30:24.708Z,11.65
2022-08-24T04:33:15.110Z,10.57
2022-08-24T04:38:34.668Z,10.77
2022-08-24T04:41:41.893Z,9.75
2022-08-24T04:44:12.008Z,11.55
2022-08-24T04:46:40.930Z,8.10
2022-08-24T04:49:10.382Z,12.55
2022-08-24T04:51:39.804Z,9.07
2022-08-24T04:54:10.775Z,13.43
2022-08-24T04:56:40.054Z,10.43
2022-08-24T04:59:08.500Z,14.32
2022-08-24T05:01:37.237Z,13.63
2022-08-24T05:04:07.519Z,16.27
2022-08-24T05:06:36.403Z,10.68
2022-08-24T05:09:06.884Z,9.38
2022-08-24T05:11:40.403Z,11.00
2022-08-24T05:14:11.257Z,10.98
2022-08-24T05:16:52.424Z,11.93
2022-08-24T05:19:21.866Z,9.60
2022-08-24T05:21:50.284Z,8.80
2022-08-24T05:24:19.671Z,10.52
2022-08-24T05:26:50.079Z,12.48
2022-08-24T05:29:19.153Z,11.07
2022-08-24T05:31:52.149Z,9.88
2022-08-24T05:34:20.500Z,10.73
2022-08-24T05:36:50.330Z,11.80
2022-08-24T05:39:38.088Z,11.57
2022-08-24T05:42:11.243Z,8.95
2022-08-24T05:44:46.278Z,10.98
2022-08-24T05:47:18.262Z,12.02
2022-08-24T05:49:48.109Z,8.43
2022-08-24T05:52:17.518Z,13.30
2022-08-24T05:54:53.610Z,12.95
2022-08-24T05:57:24.656Z,12.90
2022-08-24T06:00:09.005Z,11.48
2022-08-24T06:02:44.619Z,12.20
2022-08-24T06:05:14.201Z,12.27
2022-08-24T06:07:43.661Z,11.88
2022-08-24T06:10:35.322Z,15.18
2022-08-24T06:13:05.444Z,10.98
2022-08-24T06:15:34.542Z,13.68
2022-08-24T06:18:03.307Z,9.63
2022-08-24T06:20:31.824Z,12.45
2022-08-24T06:23:00.472Z,12.90
2022-08-24T06:25:57.401Z,9.38
2022-08-24T06:28:27.648Z,11.93
2022-08-24T06:31:03.708Z,14.00
2022-08-24T06:33:32.196Z,12.15
2022-08-24T06:36:00.794Z,11.35
2022-08-24T06:38:30.774Z,13.98
2022-08-24T06:41:00.219Z,10.45
2022-08-24T06:43:30.165Z,11.70
2022-08-24T06:46:02.995Z,13.20
2022-08-24T06:48:36.262Z,12.70
2022-08-24T06:51:10.585Z,11.95
2022-08-24T06:53:40.771Z,15.27
2022-08-24T06:56:10.197Z,14.93
2022-08-24T06:58:40.422Z,12.45
2022-08-24T07:01:16.105Z,13.40
2022-08-24T07:03:45.281Z,14.48
2022-08-24T07:06:28.009Z,13.70
2022-08-24T07:09:00.485Z,15.13
2022-08-24T07:11:29.195Z,13.63
2022-08-24T07:13:59.114Z,15.52
2022-08-24T07:16:27.930Z,16.17
2022-08-24T07:19:02.454Z,15.18
2022-08-24T07:21:32.478Z,12.85
2022-08-24T07:24:02.437Z,15.82
2022-08-24T07:26:34.845Z,18.45
2022-08-24T07:29:13.601Z,16.10
2022-08-24T07:31:50.252Z,17.88
2022-08-24T07:34:29.706Z,15.38
2022-08-24T07:37:00.027Z,15.70
2022-08-24T07:39:28.589Z,14.10
2022-08-24T07:42:17.213Z,16.25
2022-08-24T07:44:48.566Z,18.35
2022-08-24T07:50:10.696Z,18.65
2022-08-24T07:52:39.146Z,18.98
2022-08-24T07:55:09.183Z,17.25
2022-08-24T07:57:38.566Z,18.02
2022-08-24T08:00:12.721Z,17.08
2022-08-24T08:02:47.307Z,14.98
2022-08-24T08:05:20.558Z,14.70
2022-08-24T08:07:52.391Z,17.48
2022-08-24T08:10:23.454Z,20.65
2022-08-24T08:12:53.556Z,16.00
2022-08-24T08:15:23.542Z,16.05
2022-08-24T08:17:58.806Z,17.98
2022-08-24T08:20:27.299Z,17.85
2022-08-24T08:23:13.986Z,17.73
2022-08-24T08:26:03.339Z,18.27
2022-08-24T08:28:48.729Z,19.77
2022-08-24T08:31:19.011Z,17.85
2022-08-24T08:33:48.498Z,21.42
2022-08-24T08:36:17.306Z,19.13
2022-08-24T08:38:50.858Z,19.10
2022-08-24T08:41:56.418Z,22.00
2022-08-24T08:44:38.681Z,20.27
2022-08-24T08:47:34.102Z,20.50
2022-08-24T08:50:17.259Z,20.55
2022-08-24T08:53:18.758Z,19.20
2022-08-24T08:55:59.229Z,16.85
2022-08-24T08:58:57.100Z,15.63
2022-08-24T09:01:46.635Z,20.13
2022-08-24T09:04:49.286Z,17.67
2022-08-24T09:07:28.348Z,18.70
2022-08-24T09:10:51.984Z,14.75
2022-08-24T09:13:35.671Z,15.90
2022-08-24T09:16:19.700Z,17.20
2022-08-24T09:19:14.945Z,15.43
2022-08-24T09:21:59.415Z,18.95
2022-08-24T09:24:51.033Z,16.02
2022-08-24T09:27:51.695Z,15.82
2022-08-24T09:30:24.703Z,15.82
2022-08-24T09:33:01.194Z,15.65
2022-08-24T09:35:36.709Z,12.13
2022-08-24T09:38:19.001Z,15.23
2022-08-24T09:41:11.227Z,14.93
2022-08-24T09:44:12.850Z,15.18
2022-08-24T09:47:12.002Z,14.23
2022-08-24T09:49:58.761Z,14.80
2022-08-24T09:53:09.155Z,13.00
2022-08-24T09:56:00.121Z,16.40
2022-08-24T09:58:44.969Z,13.43
2022-08-24T10:01:21.530Z,13.13
2022-08-24T10:04:05.988Z,15.45
2022-08-24T10:06:43.823Z,21.75
2022-08-24T10:09:42.811Z,15.35
2022-08-24T10:12:22.773Z,14.30
2022-08-24T10:14:58.932Z,13.48
2022-08-24T10:17:37.077Z,13.18
2022-08-24T10:20:17.775Z,12.85
2022-08-24T10:23:11.580Z,13.15
2022-08-24T10:25:47.866Z,11.52
2022-08-24T10:28:45.789Z,13.68
2022-08-24T10:31:19.719Z,14.88
2022-08-24T10:34:00.392Z,12.52
2022-08-24T10:36:46.027Z,15.30
2022-08-24T10:39:42.880Z,15.70
2022-08-24T10:43:06.990Z,14.60
2022-08-24T10:46:29.259Z,16.08
2022-08-24T10:49:43.646Z,13.93
2022-08-24T10:52:49.085Z,10.23
2022-08-24T10:55:22.473Z,12.80
2022-08-24T10:58:19.991Z,12.00
2022-08-24T11:00:49.338Z,10.82
2022-08-24T11:03:27.932Z,13.93
2022-08-24T11:05:58.673Z,12.20
2022-08-24T11:08:29.285Z,14.23
2022-08-24T11:11:07.940Z,14.80
2022-08-24T11:13:38.034Z,12.10
2022-08-24T11:16:07.641Z,14.68
2022-08-24T11:18:51.180Z,19.08
2022-08-24T11:21:37.446Z,13.70
2022-08-24T11:24:08.554Z,15.40
2022-08-24T11:26:53.537Z,13.40
2022-08-24T11:29:23.255Z,13.32
2022-08-24T11:31:53.733Z,14.98
2022-08-24T11:34:34.682Z,16.27
2022-08-24T11:37:03.553Z,14.38
2022-08-24T11:39:35.772Z,15.45
2022-08-24T11:42:15.701Z,12.50
2022-08-24T11:44:49.922Z,14.20
2022-08-24T11:47:39.393Z,14.25
2022-08-24T11:50:20.929Z,14.32
2022-08-24T11:52:58.571Z,11.27
2022-08-24T11:55:46.867Z,13.02
2022-08-24T11:58:33.670Z,14.07
2022-08-24T12:01:09.567Z,12.15
2022-08-24T12:03:58.350Z,11.27
2022-08-24T12:06:41.546Z,12.43
2022-08-24T12:09:28.394Z,11.52
2022-08-24T12:12:03.807Z,8.65
2022-08-24T12:14:38.787Z,10.55
2022-08-24T12:17:16.886Z,8.55
2022-08-24T12:19:50.331Z,7.78
2022-08-24T12:22:22.071Z,10.07
2022-08-24T12:24:52.593Z,9.73
2022-08-24T12:27:25.606Z,8.38
2022-08-24T12:30:01.418Z,9.23
2022-08-24T12:32:39.565Z,8.43
2022-08-24T12:35:12.577Z,10.32
2022-08-24T12:37:45.228Z,10.43
2022-08-24T12:40:24.422Z,7.95
2022-08-24T12:42:56.625Z,9.13
2022-08-24T12:45:26.035Z,9.40
2022-08-24T12:48:03.765Z,10.40
2022-08-24T12:50:41.109Z,9.90
2022-08-24T12:53:39.263Z,7.95
2022-08-24T12:56:30.170Z,9.60
2022-08-24T12:59:16.031Z,9.65
2022-08-24T13:01:48.479Z,12.70
2022-08-24T13:04:31.373Z,9.70
2022-08-24T13:07:03.614Z,8.90
2022-08-24T13:09:36.942Z,9.50
2022-08-24T13:12:42.849Z,11.27
2022-08-24T13:15:48.371Z,6.97
2022-08-24T13:18:50.719Z,10.07
2022-08-24T13:21:42.367Z,13.40
2022-08-24T13:24:52.830Z,8.68
2022-08-24T13:28:01.434Z,9.32
2022-08-24T13:30:36.619Z,8.07
2022-08-24T13:33:09.637Z,7.97
2022-08-24T13:35:58.299Z,12.20
2022-08-24T13:38:55.945Z,13.38
2022-08-24T13:41:55.297Z,8.15
2022-08-24T13:44:36.366Z,8.82
2022-08-24T13:47:16.885Z,13.98
2022-08-24T13:50:02.249Z,11.35
2022-08-24T13:52:44.852Z,8.98
2022-08-24T13:55:45.668Z,8.50
2022-08-24T13:58:27.017Z,12.13
2022-08-24T14:01:01.933Z,10.43
2022-08-24T14:03:53.435Z,11.50
2022-08-24T14:06:39.259Z,9.63
2022-08-24T14:09:26.859Z,11.10
2022-08-24T14:12:23.356Z,7.70
2022-08-24T14:15:08.467Z,10.38
2022-08-24T14:17:55.357Z,8.55
2022-08-24T14:20:51.629Z,8.77
2022-08-24T14:23:36.531Z,11.68
2022-08-24T14:26:42.469Z,8.50
2022-08-24T14:29:40.673Z,8.20
2022-08-24T14:32:36.179Z,8.10
2022-08-24T14:35:26.149Z,9.38
2022-08-24T14:38:16.862Z,7.07
2022-08-24T14:41:03.093Z,7.82
2022-08-24T14:43:46.046Z,9.57
2022-08-24T14:46:24.167Z,10.02
2022-08-24T14:49:09.220Z,9.48
2022-08-24T14:51:56.710Z,9.85
2022-08-24T14:54:35.894Z,8.75
2022-08-24T14:57:28.814Z,7.15
2022-08-24T15:00:06.907Z,7.68
2022-08-24T15:03:17.006Z,9.63
2022-08-24T15:06:09.535Z,6.32
2022-08-24T15:08:43.957Z,9.88
2022-08-24T15:11:14.749Z,11.50
2022-08-24T15:13:48.508Z,6.95
2022-08-24T15:16:22.463Z,10.35
2022-08-24T15:18:58.744Z,8.02
2022-08-24T15:21:37.359Z,9.52
2022-08-24T15:24:16.723Z,7.35
2022-08-24T15:27:02.251Z,7.38
2022-08-24T15:29:33.450Z,9.63
2022-08-24T15:32:07.273Z,7.10
2022-08-24T15:34:40.232Z,11.18
2022-08-24T15:37:08.739Z,9.25
2022-08-24T15:39:38.613Z,8.48
2022-08-24T15:42:11.703Z,11.88
2022-08-24T15:44:43.119Z,8.30
2022-08-24T15:47:22.590Z,8.52
2022-08-24T15:49:55.186Z,7.93
2022-08-24T15:52:50.181Z,9.55
2022-08-24T15:55:36.602Z,8.95
2022-08-24T15:58:36.502Z,7.82
2022-08-24T16:01:38.657Z,8.05
2022-08-24T16:04:09.617Z,7.47
2022-08-24T16:06:41.795Z,7.65
2022-08-24T16:09:15.052Z,8.68
2022-08-24T16:11:50.306Z,9.00
2022-08-24T16:14:28.546Z,8.40
2022-08-24T16:16:59.403Z,7.15
2022-08-24T16:19:30.514Z,12.90
2022-08-24T16:22:01.712Z,9.48
2022-08-24T16:24:33.519Z,6.82
2022-08-24T16:27:07.379Z,10.93
2022-08-24T16:29:47.990Z,8.45
2022-08-24T16:32:21.598Z,9.40
2022-08-24T16:34:57.752Z,5.60
2022-08-24T16:37:26.302Z,7.65
2022-08-24T16:39:54.652Z,8.80
2022-08-24T16:42:27.305Z,8.40
2022-08-24T16:44:56.533Z,10.07
2022-08-24T16:47:25.385Z,10.25
2022-08-24T16:49:53.437Z,7.35
2022-08-24T16:52:21.979Z,8.23
2022-08-24T16:54:50.566Z,11.55
2022-08-24T16:57:22.850Z,5.85
2022-08-24T16:59:53.517Z,7.85
2022-08-24T17:02:22.953Z,9.35
2022-08-24T17:04:51.355Z,7.50
2022-08-24T17:07:24.529Z,10.65
2022-08-24T17:09:53.262Z,8.25
2022-08-24T17:12:21.730Z,9.88
2022-08-24T17:14:49.878Z,8.43
2022-08-24T17:17:21.650Z,9.02
2022-08-24T17:19:51.054Z,8.70
2022-08-24T17:22:19.102Z,9.40
2022-08-24T17:24:47.445Z,6.30
2022-08-24T17:27:16.499Z,5.90
2022-08-24T17:29:45.869Z,8.63
2022-08-24T17:32:14.930Z,7.88
2022-08-24T17:34:44.463Z,7.75
2022-08-24T17:37:13.046Z,11.65
2022-08-24T17:39:41.189Z,10.32
2022-08-24T17:42:27.900Z,8.27
2022-08-24T17:44:57.653Z,7.88
2022-08-24T17:47:25.927Z,8.88
2022-08-24T17:49:55.418Z,7.72
2022-08-24T17:52:23.578Z,10.55
2022-08-24T17:54:51.565Z,7.65
2022-08-24T17:57:28.803Z,7.70
2022-08-24T17:59:56.839Z,9.70
2022-08-24T18:02:24.918Z,8.68
2022-08-24T18:04:53.008Z,9.38
2022-08-24T18:07:36.182Z,9.55
2022-08-24T18:10:12.157Z,13.10
2022-08-24T18:12:40.759Z,8.45
2022-08-24T18:15:09.671Z,9.93
2022-08-24T18:17:40.718Z,10.13
2022-08-24T18:20:11.130Z,8.38
2022-08-24T18:22:44.556Z,10.55
2022-08-24T18:25:13.641Z,11.00
2022-08-24T18:27:43.232Z,11.63
2022-08-24T18:30:17.194Z,9.63
2022-08-24T18:32:46.372Z,9.20
2022-08-24T18:35:14.619Z,11.70
2022-08-24T18:37:44.231Z,10.75
2022-08-24T18:40:21.102Z,19.13
2022-08-24T18:42:50.909Z,11.57
2022-08-24T18:45:19.610Z,11.68
2022-08-24T18:47:53.531Z,12.45
2022-08-24T18:50:22.178Z,13.23
2022-08-24T18:52:51.729Z,14.40
2022-08-24T18:55:19.957Z,12.43
2022-08-24T18:57:48.323Z,12.95
2022-08-24T19:00:17.028Z,13.43
2022-08-24T19:02:45.507Z,10.88
2022-08-24T19:05:17.636Z,15.95
2022-08-24T19:07:47.274Z,11.60
2022-08-24T19:10:19.458Z,13.70
2022-08-24T19:12:51.630Z,12.15
2022-08-24T19:15:32.634Z,11.80
2022-08-24T19:18:07.645Z,10.55
2022-08-24T19:20:36.284Z,12.20
2022-08-24T19:23:09.325Z,11.77
2022-08-24T19:25:40.594Z,12.40
2022-08-24T19:28:08.673Z,11.27
2022-08-24T19:30:37.442Z,12.25
2022-08-24T19:33:11.781Z,14.20
2022-08-24T19:35:42.254Z,11.15
2022-08-24T19:38:10.272Z,14.38
2022-08-24T19:40:39.949Z,14.82
2022-08-24T19:43:16.123Z,11.15
2022-08-24T19:46:01.517Z,14.73
2022-08-24T19:48:30.214Z,14.60
2022-08-24T19:50:59.929Z,11.30
2022-08-24T19:53:31.375Z,12.23
2022-08-24T19:56:00.936Z,12.68
2022-08-24T19:58:32.114Z,12.07
2022-08-24T20:01:05.168Z,12.15
2022-08-24T20:03:33.304Z,10.48
2022-08-24T20:06:01.310Z,12.13
2022-08-24T20:08:29.386Z,11.10
2022-08-24T20:11:00.450Z,11.80
2022-08-24T20:13:29.985Z,13.65
2022-08-24T20:15:58.850Z,11.43
2022-08-24T20:18:31.201Z,13.07
2022-08-24T20:20:59.771Z,12.75
2022-08-24T20:23:28.085Z,12.55
2022-08-24T20:25:56.613Z,12.20
2022-08-24T20:28:30.132Z,12.40
2022-08-24T20:31:01.467Z,11.43
2022-08-24T20:33:29.543Z,11.45
2022-08-24T20:35:57.932Z,14.43
2022-08-24T20:38:26.854Z,13.27
2022-08-24T20:41:00.765Z,12.73
2022-08-24T20:43:28.954Z,12.73
2022-08-24T20:45:57.610Z,13.05
2022-08-24T20:48:30.517Z,13.13
2022-08-24T20:50:58.833Z,13.80
2022-08-24T20:53:27.418Z,10.30
2022-08-24T20:55:57.628Z,14.85
2022-08-24T20:58:26.571Z,13.88
2022-08-24T21:00:54.768Z,11.85
2022-08-24T21:03:23.016Z,12.63
2022-08-24T21:05:52.624Z,12.02
2022-08-24T21:08:20.994Z,12.85
2022-08-24T21:10:49.249Z,10.75
2022-08-24T21:13:17.334Z,11.55
2022-08-24T21:15:46.080Z,9.70
2022-08-24T21:18:14.254Z,9.73
2022-08-24T21:20:46.092Z,13.02
2022-08-24T21:23:32.649Z,9.85
2022-08-24T21:26:02.009Z,11.00
2022-08-24T21:28:30.523Z,10.45
2022-08-24T21:31:02.475Z,11.55
2022-08-24T21:33:50.893Z,9.13
2022-08-24T21:36:20.575Z,10.48
2022-08-24T21:38:51.995Z,11.93
2022-08-24T21:41:21.696Z,11.73
2022-08-24T21:43:49.803Z,10.38
2022-08-24T21:46:18.329Z,11.00
2022-08-24T21:48:46.842Z,9.27
2022-08-24T21:51:14.880Z,13.85
2022-08-24T21:53:43.029Z,10.85
2022-08-24T21:56:12.481Z,11.60
2022-08-24T21:58:40.551Z,8.68
2022-08-24T22:01:08.570Z,11.73
2022-08-24T22:03:40.140Z,10.00
2022-08-24T22:06:09.613Z,9.65
2022-08-24T22:08:37.867Z,13.85
2022-08-24T22:11:06.617Z,9.13
2022-08-24T22:13:36.714Z,11.07
2022-08-24T22:16:05.700Z,11.50
2022-08-24T22:18:34.234Z,12.82
2022-08-24T22:21:06.709Z,10.50
2022-08-24T22:23:34.949Z,10.68
2022-08-24T22:26:03.469Z,8.27
2022-08-24T22:28:31.481Z,11.90
2022-08-24T22:31:01.097Z,12.55
2022-08-24T22:33:29.851Z,11.65
2022-08-24T22:35:57.869Z,15.60
2022-08-24T22:38:25.902Z,9.57
2022-08-24T22:40:57.022Z,9.90
2022-08-24T22:43:45.023Z,11.75
2022-08-24T22:46:14.649Z,10.32
2022-08-24T22:48:42.919Z,8.65
2022-08-24T22:51:11.585Z,10.30
2022-08-24T22:53:40.747Z,8.60
2022-08-24T22:56:16.104Z,12.95
2022-08-24T22:58:44.179Z,12.80
2022-08-24T23:01:21.148Z,14.30
2022-08-24T23:03:50.311Z,12.05
2022-08-24T23:06:18.745Z,11.05
2022-08-24T23:08:46.904Z,7.35
2022-08-24T23:11:15.674Z,14.75
2022-08-24T23:13:44.153Z,8.52
2022-08-24T23:16:14.224Z,8.57
2022-08-24T23:19:01.231Z,11.48
2022-08-24T23:21:29.538Z,13.73
2022-08-24T23:23:57.665Z,11.02
2022-08-24T23:26:26.017Z,10.27
2022-08-24T23:28:55.234Z,13.98
2022-08-24T23:31:24.623Z,11.18
2022-08-24T23:33:54.263Z,12.40
2022-08-24T23:36:25.072Z,10.80
2022-08-24T23:38:55.240Z,9.00
2022-08-24T23:41:25.957Z,11.45
2022-08-24T23:43:54.776Z,8.88
2022-08-24T23:46:24.029Z,12.32
2022-08-24T23:48:55.212Z,12.25
2022-08-24T23:51:24.942Z,9.48
2022-08-24T23:53:53.173Z,7.18
2022-08-24T23:56:25.293Z,11.80
2022-08-24T23:58:54.142Z,12.48
